Time;durP1;ratioP1;P1;durP2;ratioP2;P2;SDS_P1;SDS_P2;PMS_P1;PMS_P2;Temp;Humidity;BMP_temperature;BMP_pressure;BME280_temperature;BME280_humidity;BME280_pressure;Samples;Min_cycle;Max_cycle;Signal;HPM_P1;HPM_P2
2022/07/30 00:01:05;;;;;;;;;;;22.70;99.90;;;;;;5091175;28;19908;-72
2022/07/30 00:03:31;;;;;;;;;;;22.90;99.90;;;;;;5090757;28;19966;-72
2022/07/30 00:05:57;;;;;;;;;;;22.90;99.90;;;;;;5090460;28;19969;-72
2022/07/30 00:08:23;;;;;;;;;;;23.00;99.90;;;;;;5090849;28;19908;-71
2022/07/30 00:10:49;;;;;;;;;;;23.00;99.90;;;;;;5074035;28;19912;-73
2022/07/30 00:13:14;;;;;;;;;;;23.00;99.90;;;;;;5075788;28;19912;-72
2022/07/30 00:15:40;;;;;;;;;;;23.30;99.90;;;;;;5077531;28;19970;-71
2022/07/30 00:18:06;;;;;;;;;;;23.20;99.90;;;;;;5082361;28;20296;-71
2022/07/30 00:20:31;;;;;;;;;;;23.30;99.90;;;;;;5090748;28;20290;-72
2022/07/30 00:22:57;;;;;;;;;;;23.50;99.90;;;;;;5090411;28;19916;-72
2022/07/30 00:25:23;;;;;;;;;;;23.60;99.90;;;;;;5091261;28;19915;-72
2022/07/30 00:27:48;;;;;;;;;;;23.80;99.90;;;;;;5072794;28;19908;-72
2022/07/30 00:30:14;;;;;;;;;;;23.50;99.90;;;;;;5090119;28;20308;-71
2022/07/30 00:32:40;;;;;;;;;;;23.30;99.90;;;;;;5090835;28;19913;-72
2022/07/30 00:35:05;;;;;;;;;;;23.20;99.90;;;;;;5090690;28;19909;-72
2022/07/30 00:37:31;;;;;;;;;;;23.00;99.90;;;;;;5091665;28;19912;-72
2022/07/30 00:39:57;;;;;;;;;;;23.00;99.90;;;;;;5095441;28;19927;-71
2022/07/30 00:42:25;;;;;;;;;;;23.10;99.90;;;;;;5095616;28;19919;-72
2022/07/30 00:44:51;;;;;;;;;;;23.30;99.90;;;;;;5078973;28;20361;-73
2022/07/30 00:47:17;;;;;;;;;;;23.30;99.90;;;;;;5097275;28;19908;-71
2022/07/30 00:49:43;;;;;;;;;;;23.10;99.90;;;;;;5099250;28;19908;-72
2022/07/30 00:52:08;;;;;;;;;;;23.00;99.90;;;;;;5082659;28;19955;-72
2022/07/30 00:54:34;;;;;;;;;;;22.80;99.90;;;;;;5118819;28;19908;-72
2022/07/30 00:56:59;;;;;;;;;;;22.70;99.90;;;;;;5119626;28;19918;-72
2022/07/30 00:59:27;;;;;;;;;;;22.70;99.90;;;;;;5119658;28;19908;-73
2022/07/30 01:01:53;;;;;;;;;;;22.70;99.90;;;;;;5119086;28;19941;-73
2022/07/30 01:04:19;;;;;;;;;;;22.70;99.90;;;;;;5079410;28;20285;-71
2022/07/30 01:06:45;;;;;;;;;;;22.80;99.90;;;;;;5079670;28;19909;-72
2022/07/30 01:09:10;;;;;;;;;;;22.90;99.90;;;;;;5097888;28;19955;-71
2022/07/30 01:11:37;;;;;;;;;;;22.80;99.90;;;;;;5104620;28;19956;-72
2022/07/30 01:14:04;;;;;;;;;;;22.80;99.90;;;;;;5119821;28;19960;-72
2022/07/30 01:16:29;;;;;;;;;;;22.80;99.90;;;;;;5119305;28;20447;-73
2022/07/30 01:21:42;;;;;;;;;;;23.00;99.90;;;;;;5097398;28;19934;-72
2022/07/30 01:24:19;;;;;;;;;;;23.00;99.90;;;;;;5112732;28;19930;-71
2022/07/30 01:26:45;;;;;;;;;;;23.00;99.90;;;;;;5108319;28;19928;-72
2022/07/30 01:29:12;;;;;;;;;;;23.00;99.90;;;;;;5107868;28;19962;-72
2022/07/30 01:31:38;;;;;;;;;;;23.00;99.90;;;;;;5106092;28;20003;-72
2022/07/30 01:34:04;;;;;;;;;;;23.00;99.90;;;;;;5096999;28;19916;-71
2022/07/30 01:36:30;;;;;;;;;;;23.10;99.90;;;;;;5094505;28;19912;-73
2022/07/30 01:38:57;;;;;;;;;;;22.90;99.90;;;;;;5093849;28;20234;-69
2022/07/30 01:41:23;;;;;;;;;;;23.00;99.90;;;;;;5093599;28;20431;-72
2022/07/30 01:43:49;;;;;;;;;;;23.00;99.90;;;;;;5093772;28;20050;-72
2022/07/30 01:46:15;;;;;;;;;;;23.10;99.90;;;;;;5093170;28;19997;-72
2022/07/30 01:48:42;;;;;;;;;;;23.10;99.90;;;;;;5075166;28;19970;-72
2022/07/30 01:51:09;;;;;;;;;;;23.30;99.90;;;;;;5075803;28;19999;-72
2022/07/30 01:53:36;;;;;;;;;;;23.40;99.90;;;;;;5075057;28;19977;-72
2022/07/30 01:56:02;;;;;;;;;;;23.00;99.90;;;;;;5092721;28;19908;-73
2022/07/30 01:58:30;;;;;;;;;;;22.50;99.90;;;;;;5093084;28;20533;-73
2022/07/30 02:00:57;;;;;;;;;;;22.30;99.90;;;;;;5093208;28;19908;-74
2022/07/30 02:03:24;;;;;;;;;;;22.20;99.90;;;;;;5092835;28;20297;-72
2022/07/30 02:05:52;;;;;;;;;;;22.10;99.90;;;;;;5093173;28;20414;-73
2022/07/30 02:08:22;;;;;;;;;;;22.00;99.90;;;;;;5093692;28;19908;-73
2022/07/30 02:10:50;;;;;;;;;;;21.90;99.90;;;;;;5092571;28;19908;-73
2022/07/30 02:13:25;;;;;;;;;;;21.90;99.90;;;;;;5093221;28;19948;-74
2022/07/30 02:16:23;;;;;;;;;;;21.90;99.90;;;;;;5074440;28;19912;-74
2022/07/30 02:18:49;;;;;;;;;;;22.00;99.90;;;;;;5063762;28;19912;-73
2022/07/30 02:21:16;;;;;;;;;;;22.10;99.90;;;;;;5092629;28;20383;-73
2022/07/30 02:23:44;;;;;;;;;;;22.30;99.90;;;;;;5095216;28;19917;-72
2022/07/30 02:26:14;;;;;;;;;;;22.40;99.90;;;;;;5079039;28;20432;-73
2022/07/30 02:28:41;;;;;;;;;;;22.40;99.90;;;;;;5091186;28;19916;-73
2022/07/30 02:31:07;;;;;;;;;;;22.30;99.90;;;;;;5112405;28;19915;-74
2022/07/30 02:33:36;;;;;;;;;;;22.40;99.90;;;;;;5088130;28;19909;-72
2022/07/30 02:36:02;;;;;;;;;;;22.50;99.90;;;;;;5072016;28;20016;-73
2022/07/30 02:38:29;;;;;;;;;;;22.60;99.90;;;;;;5086757;28;20006;-72
2022/07/30 02:40:56;;;;;;;;;;;22.70;99.90;;;;;;5112914;28;20003;-72
2022/07/30 02:43:24;;;;;;;;;;;22.70;99.90;;;;;;5112738;28;19912;-72
2022/07/30 02:45:50;;;;;;;;;;;22.70;99.90;;;;;;5070081;28;20330;-72
2022/07/30 02:48:17;;;;;;;;;;;22.80;99.90;;;;;;5093169;28;19930;-73
2022/07/30 02:50:43;;;;;;;;;;;22.80;99.90;;;;;;5093553;28;19908;-72
2022/07/30 02:53:10;;;;;;;;;;;22.70;99.90;;;;;;5093661;28;19995;-72
2022/07/30 02:55:37;;;;;;;;;;;22.70;99.90;;;;;;5093449;28;19908;-72
2022/07/30 02:58:04;;;;;;;;;;;22.60;99.90;;;;;;5093153;28;19908;-71
2022/07/30 03:00:30;;;;;;;;;;;22.50;99.90;;;;;;5093584;28;20355;-72
2022/07/30 03:02:56;;;;;;;;;;;22.50;99.90;;;;;;5075604;28;19913;-73
2022/07/30 03:05:22;;;;;;;;;;;22.50;99.90;;;;;;5071803;28;19909;-72
2022/07/30 03:07:48;;;;;;;;;;;22.50;99.90;;;;;;5090848;28;19908;-72
2022/07/30 03:10:14;;;;;;;;;;;22.50;99.90;;;;;;5092469;28;19951;-71
2022/07/30 03:12:41;;;;;;;;;;;22.30;99.90;;;;;;5092137;28;19916;-72
2022/07/30 03:15:07;;;;;;;;;;;22.10;99.90;;;;;;5091749;28;19999;-72
2022/07/30 03:17:43;;;;;;;;;;;21.90;99.90;;;;;;5092120;28;20257;-73
2022/07/30 03:20:11;;;;;;;;;;;21.70;99.90;;;;;;5091345;28;20280;-72
2022/07/30 03:22:39;;;;;;;;;;;21.60;99.90;;;;;;5096648;28;19915;-72
2022/07/30 03:25:08;;;;;;;;;;;21.60;99.90;;;;;;5110314;28;19908;-72
2022/07/30 03:27:35;;;;;;;;;;;21.60;99.90;;;;;;5103620;28;19913;-74
2022/07/30 03:30:01;;;;;;;;;;;21.60;99.90;;;;;;5095974;28;19919;-72
2022/07/30 03:32:27;;;;;;;;;;;21.60;99.90;;;;;;5104941;28;19919;-72
2022/07/30 03:34:53;;;;;;;;;;;21.60;99.90;;;;;;5103790;28;19935;-72
2022/07/30 03:37:19;;;;;;;;;;;21.60;99.90;;;;;;5090848;28;19963;-72
2022/07/30 03:39:44;;;;;;;;;;;21.50;99.90;;;;;;5091830;28;20285;-73
2022/07/30 03:42:10;;;;;;;;;;;21.40;99.90;;;;;;5091890;28;20376;-72
2022/07/30 03:44:36;;;;;;;;;;;21.40;99.90;;;;;;5091643;28;20686;-72
2022/07/30 03:47:03;;;;;;;;;;;21.20;99.90;;;;;;5083860;28;20062;-72
2022/07/30 03:49:29;;;;;;;;;;;21.10;99.90;;;;;;5053034;28;19931;-72
2022/07/30 03:51:55;;;;;;;;;;;21.00;99.90;;;;;;5070821;28;19908;-72
2022/07/30 03:54:21;;;;;;;;;;;21.00;99.90;;;;;;5090781;28;20315;-71
2022/07/30 03:56:47;;;;;;;;;;;20.90;99.90;;;;;;5091041;28;19998;-72
2022/07/30 03:59:12;;;;;;;;;;;21.10;99.90;;;;;;5091174;28;20270;-72
2022/07/30 04:01:38;;;;;;;;;;;21.20;99.90;;;;;;5090910;28;19965;-72
2022/07/30 04:04:05;;;;;;;;;;;21.30;99.90;;;;;;5072748;28;19940;-72
2022/07/30 04:06:30;;;;;;;;;;;21.40;99.90;;;;;;5090629;28;20045;-72
2022/07/30 04:08:56;;;;;;;;;;;21.30;99.90;;;;;;5072581;28;20369;-73
2022/07/30 04:11:21;;;;;;;;;;;21.20;99.90;;;;;;5070937;28;19916;-72
2022/07/30 04:13:47;;;;;;;;;;;21.20;99.90;;;;;;5073666;28;19920;-72
2022/07/30 04:16:12;;;;;;;;;;;21.30;99.90;;;;;;5091812;28;19914;-74
2022/07/30 04:18:41;;;;;;;;;;;21.30;99.90;;;;;;5111037;28;20356;-73
2022/07/30 04:21:09;;;;;;;;;;;21.40;99.90;;;;;;5111410;28;19908;-73
2022/07/30 04:23:35;;;;;;;;;;;21.50;99.90;;;;;;5088044;28;19922;-74
2022/07/30 04:26:01;;;;;;;;;;;21.50;99.90;;;;;;5108813;28;19911;-71
2022/07/30 04:28:27;;;;;;;;;;;21.60;99.90;;;;;;5071604;28;19912;-71
2022/07/30 04:30:53;;;;;;;;;;;21.70;99.90;;;;;;5076588;28;19919;-72
2022/07/30 04:33:19;;;;;;;;;;;21.70;99.90;;;;;;5077505;28;20340;-75
2022/07/30 04:35:44;;;;;;;;;;;21.80;99.90;;;;;;5087969;28;19912;-73
2022/07/30 04:38:12;;;;;;;;;;;21.90;99.90;;;;;;5094252;28;19920;-72
2022/07/30 04:40:38;;;;;;;;;;;22.00;99.90;;;;;;5115988;28;20002;-72
2022/07/30 04:43:04;;;;;;;;;;;22.00;99.90;;;;;;5090274;28;19912;-72
2022/07/30 04:45:30;;;;;;;;;;;22.10;99.90;;;;;;5075378;28;19913;-71
2022/07/30 04:47:55;;;;;;;;;;;22.10;99.90;;;;;;5073902;28;19966;-72
2022/07/30 04:50:23;;;;;;;;;;;22.20;99.90;;;;;;5090824;28;19908;-71
2022/07/30 04:52:49;;;;;;;;;;;22.20;99.90;;;;;;5090969;28;20361;-71
2022/07/30 04:55:16;;;;;;;;;;;22.30;99.90;;;;;;5091045;28;19956;-71
2022/07/30 04:57:42;;;;;;;;;;;22.40;99.90;;;;;;5074990;28;19909;-71
2022/07/30 05:00:08;;;;;;;;;;;22.40;99.90;;;;;;5070382;28;19931;-72
2022/07/30 05:02:35;;;;;;;;;;;22.40;99.90;;;;;;5069908;28;19932;-72
2022/07/30 05:05:01;;;;;;;;;;;22.50;99.90;;;;;;5074096;28;19919;-72
2022/07/30 05:07:27;;;;;;;;;;;22.50;99.90;;;;;;5090627;28;19912;-73
2022/07/30 05:09:53;;;;;;;;;;;22.60;99.90;;;;;;5090645;28;19915;-74
2022/07/30 05:12:18;;;;;;;;;;;22.70;99.90;;;;;;5091057;28;20375;-72
2022/07/30 05:14:44;;;;;;;;;;;22.70;99.90;;;;;;5090551;28;19909;-72
2022/07/30 05:17:09;;;;;;;;;;;22.70;99.90;;;;;;5089331;28;20019;-73
2022/07/30 05:19:35;;;;;;;;;;;22.70;99.90;;;;;;5072678;28;19908;-71
2022/07/30 05:22:01;;;;;;;;;;;23.00;99.90;;;;;;5089921;28;19922;-72
2022/07/30 05:24:26;;;;;;;;;;;23.20;99.90;;;;;;5090111;28;19916;-72
2022/07/30 05:26:52;;;;;;;;;;;23.40;99.90;;;;;;5090358;28;19908;-71
2022/07/30 05:29:18;;;;;;;;;;;23.60;99.90;;;;;;5090763;28;20015;-73
2022/07/30 05:31:43;;;;;;;;;;;23.60;99.90;;;;;;5094570;28;19993;-71
2022/07/30 05:34:09;;;;;;;;;;;23.40;99.90;;;;;;5101284;28;19916;-71
2022/07/30 05:36:35;;;;;;;;;;;23.40;99.90;;;;;;5108062;28;19908;-72
2022/07/30 05:39:00;;;;;;;;;;;23.20;99.90;;;;;;5100118;28;20358;-72
2022/07/30 05:41:29;;;;;;;;;;;23.20;99.90;;;;;;5101160;28;19916;-71
2022/07/30 05:43:55;;;;;;;;;;;23.30;99.90;;;;;;5078016;28;20419;-71
2022/07/30 05:46:20;;;;;;;;;;;23.50;99.90;;;;;;5102456;28;19953;-71
2022/07/30 05:48:46;;;;;;;;;;;23.90;99.90;;;;;;5109602;28;20262;-67
2022/07/30 05:51:11;;;;;;;;;;;24.20;99.90;;;;;;5103657;28;20333;-66
2022/07/30 05:53:37;;;;;;;;;;;24.80;99.90;;;;;;5095429;28;20062;-66
2022/07/30 05:56:03;;;;;;;;;;;25.20;99.90;;;;;;5094549;28;19923;-71
2022/07/30 05:58:28;;;;;;;;;;;25.10;99.90;;;;;;5093729;28;20446;-69
2022/07/30 06:00:54;;;;;;;;;;;24.90;99.90;;;;;;5093441;28;19920;-67
2022/07/30 06:03:19;;;;;;;;;;;24.70;99.90;;;;;;5084535;28;19938;-66
2022/07/30 06:05:45;;;;;;;;;;;24.80;99.90;;;;;;5073329;28;19967;-67
2022/07/30 06:08:10;;;;;;;;;;;25.20;99.90;;;;;;5073929;28;19996;-69
2022/07/30 06:10:36;;;;;;;;;;;25.60;99.90;;;;;;5074573;28;19970;-66
2022/07/30 06:13:02;;;;;;;;;;;25.90;99.90;;;;;;5096035;28;19927;-65
2022/07/30 06:15:27;;;;;;;;;;;25.90;99.90;;;;;;5076730;28;19934;-67
2022/07/30 06:17:53;;;;;;;;;;;25.90;99.90;;;;;;5097317;28;19992;-68
2022/07/30 06:20:19;;;;;;;;;;;26.00;99.90;;;;;;5102776;28;20000;-68
2022/07/30 06:22:44;;;;;;;;;;;25.90;99.90;;;;;;5094987;28;19968;-67
2022/07/30 06:25:10;;;;;;;;;;;24.90;99.90;;;;;;5090620;28;20296;-69
2022/07/30 06:27:36;;;;;;;;;;;25.10;99.90;;;;;;5096845;28;20501;-71
2022/07/30 06:30:06;;;;;;;;;;;25.50;99.90;;;;;;5080799;28;19912;-69
2022/07/30 06:32:31;;;;;;;;;;;25.60;99.90;;;;;;5093142;28;20007;-71
2022/07/30 06:34:57;;;;;;;;;;;25.80;99.90;;;;;;5091425;28;19995;-69
2022/07/30 06:37:22;;;;;;;;;;;25.90;99.90;;;;;;5090808;28;20369;-68
2022/07/30 06:39:48;;;;;;;;;;;26.00;99.90;;;;;;5100052;28;19947;-69
2022/07/30 06:42:14;;;;;;;;;;;26.10;99.90;;;;;;5104370;28;20426;-68
2022/07/30 06:44:39;;;;;;;;;;;26.20;99.90;;;;;;5084315;28;19924;-67
2022/07/30 06:47:05;;;;;;;;;;;26.20;99.90;;;;;;5088665;28;20360;-68
2022/07/30 06:49:31;;;;;;;;;;;25.70;99.90;;;;;;5088500;28;19924;-68
2022/07/30 06:51:57;;;;;;;;;;;25.20;99.90;;;;;;5099208;28;19915;-66
2022/07/30 06:54:23;;;;;;;;;;;25.10;99.90;;;;;;5095095;28;19912;-65
2022/07/30 06:56:48;;;;;;;;;;;24.90;99.90;;;;;;5088795;28;19924;-66
2022/07/30 06:59:14;;;;;;;;;;;24.80;99.90;;;;;;5078819;28;20375;-65
2022/07/30 07:01:39;;;;;;;;;;;24.70;99.90;;;;;;5100355;28;19912;-67
2022/07/30 07:04:05;;;;;;;;;;;24.60;99.90;;;;;;5110327;28;19972;-67
2022/07/30 07:06:31;;;;;;;;;;;24.30;99.90;;;;;;5092637;28;19915;-67
2022/07/30 07:08:57;;;;;;;;;;;24.20;99.90;;;;;;5093206;28;19912;-68
2022/07/30 07:11:23;;;;;;;;;;;24.50;99.90;;;;;;5073114;28;19939;-69
2022/07/30 07:13:48;;;;;;;;;;;24.70;99.90;;;;;;5090649;28;20406;-64
2022/07/30 07:16:14;;;;;;;;;;;24.80;99.90;;;;;;5059266;28;19912;-64
2022/07/30 07:18:39;;;;;;;;;;;25.10;99.90;;;;;;5096819;28;19916;-65
2022/07/30 07:21:06;;;;;;;;;;;25.40;99.90;;;;;;5091290;28;20400;-66
2022/07/30 07:23:32;;;;;;;;;;;25.80;99.90;;;;;;5099907;28;19916;-65
2022/07/30 07:25:58;;;;;;;;;;;25.90;99.90;;;;;;5111693;28;19912;-65
2022/07/30 07:28:23;;;;;;;;;;;26.00;99.90;;;;;;5112224;28;19941;-66
2022/07/30 07:30:49;;;;;;;;;;;26.20;99.90;;;;;;5111903;28;19983;-64
2022/07/30 07:33:14;;;;;;;;;;;26.20;99.90;;;;;;5091216;28;20021;-65
2022/07/30 07:35:40;;;;;;;;;;;26.10;99.90;;;;;;5101486;28;19975;-66
2022/07/30 07:38:06;;;;;;;;;;;26.00;99.90;;;;;;5092155;28;19908;-66
2022/07/30 07:40:32;;;;;;;;;;;26.00;99.90;;;;;;5092739;28;20357;-66
2022/07/30 07:42:57;;;;;;;;;;;26.10;99.90;;;;;;5091208;28;19927;-66
2022/07/30 07:45:23;;;;;;;;;;;26.20;99.90;;;;;;5091544;28;19965;-65
2022/07/30 07:47:49;;;;;;;;;;;26.30;99.90;;;;;;5092045;28;19908;-66
2022/07/30 07:50:15;;;;;;;;;;;26.30;99.90;;;;;;5093835;28;19916;-65
2022/07/30 07:52:41;;;;;;;;;;;26.20;99.90;;;;;;5098560;28;19916;-67
2022/07/30 07:55:07;;;;;;;;;;;26.20;99.90;;;;;;5091063;28;20000;-65
2022/07/30 07:57:39;;;;;;;;;;;26.30;99.90;;;;;;5073578;28;20400;-66
2022/07/30 08:00:05;;;;;;;;;;;26.30;99.90;;;;;;5092644;28;20318;-65
2022/07/30 08:02:31;;;;;;;;;;;26.40;99.90;;;;;;5111051;28;19960;-66
2022/07/30 08:04:57;;;;;;;;;;;26.30;99.90;;;;;;5095402;28;19916;-65
2022/07/30 08:07:22;;;;;;;;;;;26.20;99.90;;;;;;5076895;28;20281;-64
2022/07/30 08:09:48;;;;;;;;;;;26.10;99.90;;;;;;5089642;28;19919;-66
2022/07/30 08:12:14;;;;;;;;;;;26.30;99.90;;;;;;5094104;28;19947;-65
2022/07/30 08:14:39;;;;;;;;;;;26.50;99.90;;;;;;5092620;28;19912;-65
2022/07/30 08:17:07;;;;;;;;;;;26.50;99.90;;;;;;5108573;28;20545;-66
2022/07/30 08:19:33;;;;;;;;;;;26.70;99.90;;;;;;5111192;28;19993;-66
2022/07/30 08:21:58;;;;;;;;;;;26.80;99.90;;;;;;5111102;28;19982;-65
2022/07/30 08:24:24;;;;;;;;;;;26.70;99.90;;;;;;5111293;28;19912;-67
2022/07/30 08:26:49;;;;;;;;;;;26.50;99.90;;;;;;5109774;28;20362;-66
2022/07/30 08:29:15;;;;;;;;;;;26.40;99.90;;;;;;5099447;28;19915;-67
2022/07/30 08:31:41;;;;;;;;;;;26.10;99.90;;;;;;5110979;28;19908;-66
2022/07/30 08:34:06;;;;;;;;;;;26.00;99.90;;;;;;5092845;28;19908;-66
2022/07/30 08:36:32;;;;;;;;;;;26.20;99.90;;;;;;5082573;28;19977;-67
2022/07/30 08:38:57;;;;;;;;;;;26.50;99.90;;;;;;5090654;28;20434;-67
2022/07/30 08:41:24;;;;;;;;;;;26.80;99.90;;;;;;5110351;28;20370;-66
2022/07/30 08:43:50;;;;;;;;;;;27.00;99.90;;;;;;5097044;28;20003;-64
2022/07/30 08:46:16;;;;;;;;;;;27.00;99.90;;;;;;5090563;28;20262;-67
2022/07/30 08:48:43;;;;;;;;;;;26.80;99.90;;;;;;5087360;28;19923;-66
2022/07/30 08:51:09;;;;;;;;;;;26.90;99.90;;;;;;5100371;28;19912;-67
2022/07/30 08:53:35;;;;;;;;;;;26.90;99.90;;;;;;5072324;28;19935;-67
2022/07/30 08:56:01;;;;;;;;;;;26.80;99.90;;;;;;5094577;28;20365;-67
2022/07/30 08:58:28;;;;;;;;;;;26.90;99.90;;;;;;5071857;28;19920;-68
2022/07/30 09:00:54;;;;;;;;;;;26.80;99.90;;;;;;5094792;28;19912;-64
2022/07/30 09:03:20;;;;;;;;;;;26.80;99.90;;;;;;5097909;28;19969;-64
2022/07/30 09:05:46;;;;;;;;;;;26.80;99.90;;;;;;5093793;28;20410;-64
2022/07/30 09:08:11;;;;;;;;;;;26.90;99.90;;;;;;5102021;28;19923;-66
2022/07/30 09:10:37;;;;;;;;;;;27.30;99.90;;;;;;5097956;28;19918;-65
2022/07/30 09:13:03;;;;;;;;;;;27.40;99.90;;;;;;5105884;28;19908;-69
2022/07/30 09:15:28;;;;;;;;;;;27.50;99.90;;;;;;5113821;28;19947;-67
2022/07/30 09:17:54;;;;;;;;;;;27.60;99.90;;;;;;5099805;28;19911;-70
2022/07/30 09:20:24;;;;;;;;;;;27.60;99.90;;;;;;5095048;28;19912;-66
2022/07/30 09:22:51;;;;;;;;;;;27.20;99.90;;;;;;5094990;28;19923;-66
2022/07/30 09:25:31;;;;;;;;;;;26.90;99.90;;;;;;5099534;28;20006;-66
2022/07/30 09:27:57;;;;;;;;;;;27.00;99.90;;;;;;5093845;28;19938;-68
2022/07/30 09:30:23;;;;;;;;;;;27.10;99.90;;;;;;5092559;28;19955;-69
2022/07/30 09:32:53;;;;;;;;;;;27.20;99.90;;;;;;5108234;28;19911;-65
2022/07/30 09:35:18;;;;;;;;;;;27.40;99.90;;;;;;5097303;28;20339;-65
2022/07/30 09:37:45;;;;;;;;;;;27.60;99.90;;;;;;5094455;28;20020;-66
2022/07/30 09:40:15;;;;;;;;;;;27.60;99.90;;;;;;5076542;28;19920;-66
2022/07/30 09:42:40;;;;;;;;;;;27.40;99.90;;;;;;5098018;28;19924;-66
2022/07/30 09:45:07;;;;;;;;;;;27.30;99.90;;;;;;5101900;28;19957;-65
2022/07/30 09:47:34;;;;;;;;;;;27.00;99.90;;;;;;5094029;28;19923;-67
2022/07/30 09:50:08;;;;;;;;;;;27.20;99.90;;;;;;5093976;28;19919;-64
2022/07/30 09:52:35;;;;;;;;;;;27.10;99.90;;;;;;5078308;28;19913;-65
2022/07/30 09:55:00;;;;;;;;;;;27.40;99.90;;;;;;5093315;28;19920;-64
2022/07/30 09:57:26;;;;;;;;;;;27.60;99.90;;;;;;5095630;28;19992;-66
2022/07/30 09:59:51;;;;;;;;;;;27.30;99.90;;;;;;5087472;28;19917;-66
2022/07/30 10:02:17;;;;;;;;;;;27.20;99.90;;;;;;5097601;28;19919;-66
2022/07/30 10:04:43;;;;;;;;;;;27.20;99.90;;;;;;5109695;28;20357;-66
2022/07/30 10:07:19;;;;;;;;;;;27.10;99.90;;;;;;5096349;28;19922;-67
2022/07/30 10:09:46;;;;;;;;;;;27.10;99.90;;;;;;5071406;28;20010;-65
2022/07/30 10:12:12;;;;;;;;;;;27.40;99.90;;;;;;5101232;28;19923;-68
2022/07/30 10:14:40;;;;;;;;;;;27.60;99.90;;;;;;5094530;28;19912;-66
2022/07/30 10:17:06;;;;;;;;;;;27.80;99.90;;;;;;5113054;28;20356;-67
2022/07/30 10:19:32;;;;;;;;;;;27.60;99.90;;;;;;5096422;28;19908;-67
2022/07/30 10:21:58;;;;;;;;;;;27.70;99.90;;;;;;5091525;28;19947;-65
2022/07/30 10:24:24;;;;;;;;;;;27.90;99.90;;;;;;5105928;28;19920;-68
2022/07/30 10:26:51;;;;;;;;;;;27.60;99.90;;;;;;5095685;28;19920;-66
2022/07/30 10:29:17;;;;;;;;;;;27.50;99.90;;;;;;5097345;28;20416;-67
2022/07/30 10:31:46;;;;;;;;;;;27.30;99.90;;;;;;5090200;28;20365;-66
2022/07/30 10:34:13;;;;;;;;;;;27.10;99.90;;;;;;5092027;28;19961;-66
2022/07/30 10:36:49;;;;;;;;;;;27.50;99.90;;;;;;5095138;28;19911;-66
2022/07/30 10:39:20;;;;;;;;;;;27.80;99.90;;;;;;5091622;28;19919;-66
2022/07/30 10:42:01;;;;;;;;;;;28.10;99.90;;;;;;5079143;28;20146;-66
2022/07/30 10:44:32;;;;;;;;;;;28.00;99.90;;;;;;5112174;28;19915;-69
2022/07/30 10:47:06;;;;;;;;;;;27.60;99.90;;;;;;5077872;28;19912;-68
2022/07/30 10:49:31;;;;;;;;;;;27.80;99.90;;;;;;5100081;28;19965;-69
2022/07/30 10:51:57;;;;;;;;;;;27.90;99.90;;;;;;5092872;28;19916;-68
2022/07/30 10:54:29;;;;;;;;;;;27.60;99.90;;;;;;5096029;28;19999;-67
2022/07/30 10:57:04;;;;;;;;;;;27.30;99.90;;;;;;5104874;28;19923;-67
2022/07/30 10:59:50;;;;;;;;;;;27.10;99.90;;;;;;5109514;28;20393;-66
2022/07/30 11:02:16;;;;;;;;;;;27.10;99.90;;;;;;5105273;28;19922;-69
2022/07/30 11:04:41;;;;;;;;;;;27.00;99.90;;;;;;5099922;28;19940;-69
2022/07/30 11:07:28;;;;;;;;;;;27.00;99.90;;;;;;5115764;28;20411;-68
2022/07/30 11:09:55;;;;;;;;;;;27.10;99.90;;;;;;5104877;28;20046;-69
2022/07/30 11:12:46;;;;;;;;;;;27.50;99.90;;;;;;5105092;28;19923;-66
2022/07/30 11:15:12;;;;;;;;;;;27.60;99.90;;;;;;5092052;28;19962;-67
2022/07/30 11:17:57;;;;;;;;;;;27.80;99.90;;;;;;5077031;28;19923;-70
2022/07/30 11:20:22;;;;;;;;;;;28.00;99.90;;;;;;5085720;28;19991;-67
2022/07/30 11:22:48;;;;;;;;;;;28.20;99.90;;;;;;5094001;28;20014;-67
2022/07/30 11:25:26;;;;;;;;;;;28.00;99.90;;;;;;5107738;28;19908;-66
2022/07/30 11:27:52;;;;;;;;;;;28.30;99.90;;;;;;5101426;28;19907;-66
2022/07/30 11:30:21;;;;;;;;;;;28.30;99.90;;;;;;5096873;28;19919;-67
2022/07/30 11:32:50;;;;;;;;;;;28.40;99.90;;;;;;5093434;28;19919;-68
2022/07/30 11:35:22;;;;;;;;;;;28.60;99.90;;;;;;5086998;28;19916;-67
2022/07/30 11:37:54;;;;;;;;;;;28.90;99.90;;;;;;5089103;28;20003;-68
2022/07/30 11:40:19;;;;;;;;;;;29.30;99.90;;;;;;5104387;28;19908;-69
2022/07/30 11:42:45;;;;;;;;;;;30.00;99.90;;;;;;5112631;28;19918;-68
2022/07/30 11:45:14;;;;;;;;;;;30.40;99.90;;;;;;5099068;28;19958;-69
2022/07/30 11:47:41;;;;;;;;;;;30.70;99.90;;;;;;5091108;28;19912;-68
2022/07/30 11:50:16;;;;;;;;;;;30.80;99.90;;;;;;5073796;28;20287;-66
2022/07/30 11:52:42;;;;;;;;;;;30.10;99.90;;;;;;5091790;28;19938;-69
2022/07/30 11:55:08;;;;;;;;;;;30.10;99.90;;;;;;5092344;28;19908;-69
2022/07/30 11:57:41;;;;;;;;;;;29.70;99.90;;;;;;5096849;28;20075;-67
2022/07/30 12:00:07;;;;;;;;;;;29.30;99.90;;;;;;5092316;28;20357;-70
2022/07/30 12:02:32;;;;;;;;;;;29.10;99.90;;;;;;5089366;28;19916;-69
2022/07/30 12:04:58;;;;;;;;;;;28.90;99.90;;;;;;5102852;28;19938;-68
2022/07/30 12:07:24;;;;;;;;;;;28.60;99.90;;;;;;5095829;28;19912;-66
2022/07/30 12:09:49;;;;;;;;;;;28.40;99.90;;;;;;5096501;28;19935;-67
2022/07/30 12:12:23;;;;;;;;;;;28.20;99.90;;;;;;5093822;28;19919;-68
2022/07/30 12:14:48;;;;;;;;;;;28.10;99.90;;;;;;5098346;28;19919;-69
2022/07/30 12:17:14;;;;;;;;;;;28.20;99.90;;;;;;5084938;28;19908;-68
2022/07/30 12:19:43;;;;;;;;;;;28.20;99.90;;;;;;5097324;28;20365;-67
2022/07/30 12:22:09;;;;;;;;;;;28.20;99.90;;;;;;5091465;28;20392;-67
2022/07/30 12:24:34;;;;;;;;;;;28.20;99.90;;;;;;5074196;28;19912;-68
2022/07/30 12:27:07;;;;;;;;;;;28.20;99.90;;;;;;5104548;28;20353;-69
2022/07/30 12:29:33;;;;;;;;;;;28.20;99.90;;;;;;5090744;28;19913;-67
2022/07/30 12:31:59;;;;;;;;;;;28.10;99.90;;;;;;5090932;28;19950;-67
2022/07/30 12:34:25;;;;;;;;;;;28.10;99.90;;;;;;5105607;28;19916;-67
2022/07/30 12:36:51;;;;;;;;;;;28.00;99.90;;;;;;5099024;28;19920;-66
2022/07/30 12:39:17;;;;;;;;;;;28.00;99.90;;;;;;5096135;28;19912;-68
2022/07/30 12:41:44;;;;;;;;;;;28.10;99.90;;;;;;5066844;28;19913;-67
2022/07/30 12:44:30;;;;;;;;;;;28.20;99.90;;;;;;5089555;28;19974;-66
2022/07/30 12:46:55;;;;;;;;;;;28.20;99.90;;;;;;5096988;28;20654;-64
2022/07/30 12:49:27;;;;;;;;;;;28.20;99.90;;;;;;5085691;28;19912;-64
2022/07/30 12:51:52;;;;;;;;;;;28.10;99.90;;;;;;5090088;28;19918;-65
2022/07/30 12:54:18;;;;;;;;;;;28.20;99.90;;;;;;5095189;28;19908;-65
2022/07/30 12:56:57;;;;;;;;;;;28.10;99.90;;;;;;5093679;28;19915;-64
2022/07/30 12:59:24;;;;;;;;;;;28.00;99.90;;;;;;5098537;28;19916;-65
2022/07/30 13:01:51;;;;;;;;;;;28.00;99.90;;;;;;5094724;28;19919;-65
2022/07/30 13:04:17;;;;;;;;;;;28.10;99.90;;;;;;5093319;28;19916;-66
2022/07/30 13:06:42;;;;;;;;;;;28.30;99.90;;;;;;5093553;28;19935;-63
2022/07/30 13:09:19;;;;;;;;;;;28.40;99.90;;;;;;5077619;28;20372;-65
2022/07/30 13:11:45;;;;;;;;;;;28.40;99.90;;;;;;5087434;28;19912;-63
2022/07/30 13:14:15;;;;;;;;;;;28.40;99.90;;;;;;5085344;28;20395;-65
2022/07/30 13:16:41;;;;;;;;;;;28.40;99.90;;;;;;5091251;28;19923;-65
2022/07/30 13:19:10;;;;;;;;;;;28.40;99.90;;;;;;5096030;28;19908;-65
2022/07/30 13:21:36;;;;;;;;;;;28.40;99.90;;;;;;5095858;28;19923;-64
2022/07/30 13:24:01;;;;;;;;;;;28.50;99.90;;;;;;5096559;28;19923;-64
2022/07/30 13:26:28;;;;;;;;;;;28.50;99.90;;;;;;5102157;28;19912;-64
2022/07/30 13:28:54;;;;;;;;;;;28.50;99.90;;;;;;5094308;28;19908;-66
2022/07/30 13:31:22;;;;;;;;;;;28.50;99.90;;;;;;5091680;28;19919;-65
2022/07/30 13:33:48;;;;;;;;;;;28.60;99.90;;;;;;5094060;28;19908;-66
2022/07/30 13:36:14;;;;;;;;;;;28.70;99.90;;;;;;5093135;28;20385;-64
2022/07/30 13:38:40;;;;;;;;;;;28.70;99.90;;;;;;5107187;28;20145;-64
2022/07/30 13:41:06;;;;;;;;;;;29.00;99.90;;;;;;5096673;28;19919;-65
2022/07/30 13:43:31;;;;;;;;;;;29.10;99.90;;;;;;5099150;28;19915;-66
2022/07/30 13:45:57;;;;;;;;;;;29.10;99.90;;;;;;5095334;28;19912;-65
2022/07/30 13:48:23;;;;;;;;;;;29.10;99.90;;;;;;5093498;28;19919;-66
2022/07/30 13:50:48;;;;;;;;;;;29.20;99.90;;;;;;5074841;28;19919;-65
2022/07/30 13:53:14;;;;;;;;;;;29.20;99.90;;;;;;5093778;28;19908;-67
2022/07/30 13:55:41;;;;;;;;;;;29.30;99.90;;;;;;5086762;28;19916;-65
2022/07/30 13:58:07;;;;;;;;;;;29.30;99.90;;;;;;5079954;28;20756;-62
2022/07/30 14:00:35;;;;;;;;;;;29.30;99.90;;;;;;5086189;28;19913;-60
2022/07/30 14:03:04;;;;;;;;;;;29.30;99.90;;;;;;5089640;28;20288;-61
2022/07/30 14:05:40;;;;;;;;;;;;;;;;;;;;;
2022/07/30 14:08:06;;;;;;;;;;;29.50;99.90;;;;;;5092167;28;19915;-64
2022/07/30 14:10:33;;;;;;;;;;;29.60;99.90;;;;;;5100843;28;20400;-64
2022/07/30 14:12:59;;;;;;;;;;;29.60;99.90;;;;;;5094495;28;19919;-62
2022/07/30 14:15:26;;;;;;;;;;;29.50;99.90;;;;;;5083059;28;20322;-63
2022/07/30 14:17:52;;;;;;;;;;;29.60;99.90;;;;;;5099820;28;19916;-63
2022/07/30 14:20:18;;;;;;;;;;;29.80;99.90;;;;;;5094251;28;19934;-64